sensor_id;sensor_type;location;lat;lon;timestamp;temperature;humidity
3948;DHT22;1988;48.694;9.562;2022-07-06T00:01:02;24.00;99.90
3948;DHT22;1988;48.694;9.562;2022-07-06T00:03:27;24.00;99.90
3948;DHT22;1988;48.694;9.562;2022-07-06T00:05:53;23.90;99.90
3948;DHT22;1988;48.694;9.562;2022-07-06T00:08:18;23.90;99.90
3948;DHT22;1988;48.694;9.562;2022-07-06T00:10:44;23.90;99.90
3948;DHT22;1988;48.694;9.562;2022-07-06T00:13:09;23.90;99.90
3948;DHT22;1988;48.694;9.562;2022-07-06T00:15:35;23.90;99.90
3948;DHT22;1988;48.694;9.562;2022-07-06T00:18:00;23.80;99.90
3948;DHT22;1988;48.694;9.562;2022-07-06T00:20:26;23.80;99.90
3948;DHT22;1988;48.694;9.562;2022-07-06T00:22:51;23.80;99.90
3948;DHT22;1988;48.694;9.562;2022-07-06T00:25:17;23.80;99.90
3948;DHT22;1988;48.694;9.562;2022-07-06T00:27:42;23.80;99.90
3948;DHT22;1988;48.694;9.562;2022-07-06T00:30:08;23.80;99.90
3948;DHT22;1988;48.694;9.562;2022-07-06T00:32:33;23.70;99.90
3948;DHT22;1988;48.694;9.562;2022-07-06T00:34:59;23.70;99.90
3948;DHT22;1988;48.694;9.562;2022-07-06T00:37:24;23.70;99.90
3948;DHT22;1988;48.694;9.562;2022-07-06T00:39:50;23.70;99.90
3948;DHT22;1988;48.694;9.562;2022-07-06T00:42:15;23.70;99.90
3948;DHT22;1988;48.694;9.562;2022-07-06T00:44:41;23.70;99.90
3948;DHT22;1988;48.694;9.562;2022-07-06T00:47:06;23.60;99.90
3948;DHT22;1988;48.694;9.562;2022-07-06T00:49:33;23.60;99.90
3948;DHT22;1988;48.694;9.562;2022-07-06T00:52:17;23.60;99.90
3948;DHT22;1988;48.694;9.562;2022-07-06T00:54:42;23.60;99.90
3948;DHT22;1988;48.694;9.562;2022-07-06T00:57:08;23.50;99.90
3948;DHT22;1988;48.694;9.562;2022-07-06T00:59:35;23.50;99.90
3948;DHT22;1988;48.694;9.562;2022-07-06T01:02:00;23.50;99.90
3948;DHT22;1988;48.694;9.562;2022-07-06T01:04:26;23.50;99.90
3948;DHT22;1988;48.694;9.562;2022-07-06T01:06:51;23.50;99.90
3948;DHT22;1988;48.694;9.562;2022-07-06T01:09:18;23.50;99.90
3948;DHT22;1988;48.694;9.562;2022-07-06T01:11:43;23.50;99.90
3948;DHT22;1988;48.694;9.562;2022-07-06T01:14:09;23.40;99.90
3948;DHT22;1988;48.694;9.562;2022-07-06T01:16:35;23.40;99.90
3948;DHT22;1988;48.694;9.562;2022-07-06T01:19:00;23.40;99.90
3948;DHT22;1988;48.694;9.562;2022-07-06T01:21:26;23.40;99.90
3948;DHT22;1988;48.694;9.562;2022-07-06T01:23:51;23.40;99.90
3948;DHT22;1988;48.694;9.562;2022-07-06T01:26:18;23.30;99.90
3948;DHT22;1988;48.694;9.562;2022-07-06T01:28:44;23.30;99.90
3948;DHT22;1988;48.694;9.562;2022-07-06T01:31:23;23.30;99.90
3948;DHT22;1988;48.694;9.562;2022-07-06T01:33:49;23.30;99.90
3948;DHT22;1988;48.694;9.562;2022-07-06T01:36:15;23.30;99.90
3948;DHT22;1988;48.694;9.562;2022-07-06T01:38:53;23.20;99.90
3948;DHT22;1988;48.694;9.562;2022-07-06T01:41:19;23.20;99.90
3948;DHT22;1988;48.694;9.562;2022-07-06T01:43:45;23.20;99.90
3948;DHT22;1988;48.694;9.562;2022-07-06T01:46:11;23.20;99.90
3948;DHT22;1988;48.694;9.562;2022-07-06T01:48:37;23.20;99.90
3948;DHT22;1988;48.694;9.562;2022-07-06T01:51:03;23.10;99.90
3948;DHT22;1988;48.694;9.562;2022-07-06T01:53:28;23.10;99.90
3948;DHT22;1988;48.694;9.562;2022-07-06T01:55:54;23.10;99.90
3948;DHT22;1988;48.694;9.562;2022-07-06T01:58:20;23.10;99.90
3948;DHT22;1988;48.694;9.562;2022-07-06T02:00:45;23.10;99.90
3948;DHT22;1988;48.694;9.562;2022-07-06T02:03:11;23.10;99.90
3948;DHT22;1988;48.694;9.562;2022-07-06T02:05:36;23.10;99.90
3948;DHT22;1988;48.694;9.562;2022-07-06T02:08:02;23.10;99.90
3948;DHT22;1988;48.694;9.562;2022-07-06T02:10:27;23.00;99.90
3948;DHT22;1988;48.694;9.562;2022-07-06T02:12:53;23.00;99.90
3948;DHT22;1988;48.694;9.562;2022-07-06T02:15:18;23.00;99.90
3948;DHT22;1988;48.694;9.562;2022-07-06T02:17:44;23.00;99.90
3948;DHT22;1988;48.694;9.562;2022-07-06T02:20:09;23.00;99.90
3948;DHT22;1988;48.694;9.562;2022-07-06T02:22:35;23.00;99.90
3948;DHT22;1988;48.694;9.562;2022-07-06T02:25:01;22.90;99.90
3948;DHT22;1988;48.694;9.562;2022-07-06T02:27:26;22.90;99.90
3948;DHT22;1988;48.694;9.562;2022-07-06T02:29:52;22.90;99.90
3948;DHT22;1988;48.694;9.562;2022-07-06T02:32:17;22.90;99.90
3948;DHT22;1988;48.694;9.562;2022-07-06T02:34:43;22.90;99.90
3948;DHT22;1988;48.694;9.562;2022-07-06T02:37:08;22.90;99.90
3948;DHT22;1988;48.694;9.562;2022-07-06T02:39:34;22.80;99.90
3948;DHT22;1988;48.694;9.562;2022-07-06T02:41:59;22.80;99.90
3948;DHT22;1988;48.694;9.562;2022-07-06T02:44:25;22.80;99.90
3948;DHT22;1988;48.694;9.562;2022-07-06T02:46:50;22.80;99.90
3948;DHT22;1988;48.694;9.562;2022-07-06T02:49:16;22.80;99.90
3948;DHT22;1988;48.694;9.562;2022-07-06T02:51:41;22.80;99.90
3948;DHT22;1988;48.694;9.562;2022-07-06T02:54:07;22.70;99.90
3948;DHT22;1988;48.694;9.562;2022-07-06T02:56:32;22.70;99.90
3948;DHT22;1988;48.694;9.562;2022-07-06T02:58:58;22.70;99.90
3948;DHT22;1988;48.694;9.562;2022-07-06T03:01:23;22.70;99.90
3948;DHT22;1988;48.694;9.562;2022-07-06T03:03:49;22.70;99.90
3948;DHT22;1988;48.694;9.562;2022-07-06T03:06:14;22.70;99.90
3948;DHT22;1988;48.694;9.562;2022-07-06T03:08:40;22.80;99.90
3948;DHT22;1988;48.694;9.562;2022-07-06T03:11:05;22.80;99.90
3948;DHT22;1988;48.694;9.562;2022-07-06T03:13:31;22.80;99.90
3948;DHT22;1988;48.694;9.562;2022-07-06T03:15:56;22.80;99.90
3948;DHT22;1988;48.694;9.562;2022-07-06T03:18:22;22.80;99.90
3948;DHT22;1988;48.694;9.562;2022-07-06T03:20:47;22.80;99.90
3948;DHT22;1988;48.694;9.562;2022-07-06T03:23:13;22.80;99.90
3948;DHT22;1988;48.694;9.562;2022-07-06T03:25:38;22.80;99.90
3948;DHT22;1988;48.694;9.562;2022-07-06T03:28:04;22.70;99.90
3948;DHT22;1988;48.694;9.562;2022-07-06T03:30:29;22.70;99.90
3948;DHT22;1988;48.694;9.562;2022-07-06T03:32:55;22.70;99.90
3948;DHT22;1988;48.694;9.562;2022-07-06T03:35:20;22.70;99.90
3948;DHT22;1988;48.694;9.562;2022-07-06T03:37:46;22.60;99.90
3948;DHT22;1988;48.694;9.562;2022-07-06T03:40:11;22.60;99.90
3948;DHT22;1988;48.694;9.562;2022-07-06T03:42:37;22.50;99.90
3948;DHT22;1988;48.694;9.562;2022-07-06T03:45:03;22.50;99.90
3948;DHT22;1988;48.694;9.562;2022-07-06T03:47:29;22.50;99.90
3948;DHT22;1988;48.694;9.562;2022-07-06T03:49:55;22.50;99.90
3948;DHT22;1988;48.694;9.562;2022-07-06T03:52:20;22.40;99.90
3948;DHT22;1988;48.694;9.562;2022-07-06T03:54:46;22.40;99.90
3948;DHT22;1988;48.694;9.562;2022-07-06T03:57:11;22.40;99.90
3948;DHT22;1988;48.694;9.562;2022-07-06T03:59:41;22.40;99.90
3948;DHT22;1988;48.694;9.562;2022-07-06T04:02:06;22.30;99.90
3948;DHT22;1988;48.694;9.562;2022-07-06T04:04:33;22.30;99.90
3948;DHT22;1988;48.694;9.562;2022-07-06T04:06:58;22.30;99.90
3948;DHT22;1988;48.694;9.562;2022-07-06T04:09:24;22.30;99.90
3948;DHT22;1988;48.694;9.562;2022-07-06T04:11:49;22.20;99.90
3948;DHT22;1988;48.694;9.562;2022-07-06T04:14:15;22.20;99.90
3948;DHT22;1988;48.694;9.562;2022-07-06T04:16:40;22.20;99.90
3948;DHT22;1988;48.694;9.562;2022-07-06T04:19:06;22.10;99.90
3948;DHT22;1988;48.694;9.562;2022-07-06T04:21:31;22.10;99.90
3948;DHT22;1988;48.694;9.562;2022-07-06T04:23:57;22.10;99.90
3948;DHT22;1988;48.694;9.562;2022-07-06T04:26:22;22.10;99.90
3948;DHT22;1988;48.694;9.562;2022-07-06T04:28:48;22.10;99.90
3948;DHT22;1988;48.694;9.562;2022-07-06T04:31:13;22.00;99.90
3948;DHT22;1988;48.694;9.562;2022-07-06T04:33:41;22.00;99.90
3948;DHT22;1988;48.694;9.562;2022-07-06T04:36:07;22.00;99.90
3948;DHT22;1988;48.694;9.562;2022-07-06T04:38:32;22.00;99.90
3948;DHT22;1988;48.694;9.562;2022-07-06T04:40:58;21.90;99.90
3948;DHT22;1988;48.694;9.562;2022-07-06T04:43:23;21.90;99.90
3948;DHT22;1988;48.694;9.562;2022-07-06T04:45:49;21.90;99.90
3948;DHT22;1988;48.694;9.562;2022-07-06T04:48:15;21.90;99.90
3948;DHT22;1988;48.694;9.562;2022-07-06T04:50:40;21.90;99.90
3948;DHT22;1988;48.694;9.562;2022-07-06T04:53:06;21.90;99.90
3948;DHT22;1988;48.694;9.562;2022-07-06T04:55:32;21.80;99.90
3948;DHT22;1988;48.694;9.562;2022-07-06T04:57:57;21.90;99.90
3948;DHT22;1988;48.694;9.562;2022-07-06T05:00:23;21.80;99.90
3948;DHT22;1988;48.694;9.562;2022-07-06T05:02:48;21.80;99.90
3948;DHT22;1988;48.694;9.562;2022-07-06T05:05:14;21.80;99.90
3948;DHT22;1988;48.694;9.562;2022-07-06T05:07:40;21.80;99.90
3948;DHT22;1988;48.694;9.562;2022-07-06T05:10:06;21.80;99.90
3948;DHT22;1988;48.694;9.562;2022-07-06T05:12:32;21.70;99.90
3948;DHT22;1988;48.694;9.562;2022-07-06T05:14:57;21.80;99.90
3948;DHT22;1988;48.694;9.562;2022-07-06T05:17:23;21.70;99.90
3948;DHT22;1988;48.694;9.562;2022-07-06T05:19:48;21.70;99.90
3948;DHT22;1988;48.694;9.562;2022-07-06T05:22:14;21.70;99.90
3948;DHT22;1988;48.694;9.562;2022-07-06T05:24:39;21.70;99.90
3948;DHT22;1988;48.694;9.562;2022-07-06T05:27:05;21.70;99.90
3948;DHT22;1988;48.694;9.562;2022-07-06T05:29:30;21.70;99.90
3948;DHT22;1988;48.694;9.562;2022-07-06T05:31:56;21.70;99.90
3948;DHT22;1988;48.694;9.562;2022-07-06T05:34:21;21.70;99.90
3948;DHT22;1988;48.694;9.562;2022-07-06T05:36:46;21.70;99.90
3948;DHT22;1988;48.694;9.562;2022-07-06T05:39:12;21.70;99.90
3948;DHT22;1988;48.694;9.562;2022-07-06T05:41:38;21.70;99.90
3948;DHT22;1988;48.694;9.562;2022-07-06T05:44:03;21.70;99.90
3948;DHT22;1988;48.694;9.562;2022-07-06T05:46:29;21.70;99.90
3948;DHT22;1988;48.694;9.562;2022-07-06T05:48:55;21.70;99.90
3948;DHT22;1988;48.694;9.562;2022-07-06T05:51:39;21.70;99.90
3948;DHT22;1988;48.694;9.562;2022-07-06T05:54:04;21.70;99.90
3948;DHT22;1988;48.694;9.562;2022-07-06T05:56:30;21.70;99.90
3948;DHT22;1988;48.694;9.562;2022-07-06T05:58:55;21.80;99.90
3948;DHT22;1988;48.694;9.562;2022-07-06T06:01:21;21.80;99.90
3948;DHT22;1988;48.694;9.562;2022-07-06T06:03:46;21.80;99.90
3948;DHT22;1988;48.694;9.562;2022-07-06T06:06:12;21.80;99.90
3948;DHT22;1988;48.694;9.562;2022-07-06T06:08:37;21.80;99.90
3948;DHT22;1988;48.694;9.562;2022-07-06T06:11:03;21.80;99.90
3948;DHT22;1988;48.694;9.562;2022-07-06T06:13:28;21.80;99.90
3948;DHT22;1988;48.694;9.562;2022-07-06T06:15:54;21.90;99.90
3948;DHT22;1988;48.694;9.562;2022-07-06T06:18:19;21.90;99.90
3948;DHT22;1988;48.694;9.562;2022-07-06T06:20:45;21.90;99.90
3948;DHT22;1988;48.694;9.562;2022-07-06T06:23:11;21.90;99.90
3948;DHT22;1988;48.694;9.562;2022-07-06T06:25:37;21.90;99.90
3948;DHT22;1988;48.694;9.562;2022-07-06T06:28:04;21.90;99.90
3948;DHT22;1988;48.694;9.562;2022-07-06T06:30:30;21.90;99.90
3948;DHT22;1988;48.694;9.562;2022-07-06T06:35:37;22.00;99.90
3948;DHT22;1988;48.694;9.562;2022-07-06T06:38:02;22.00;99.90
3948;DHT22;1988;48.694;9.562;2022-07-06T06:40:28;22.00;99.90
3948;DHT22;1988;48.694;9.562;2022-07-06T06:42:53;22.00;99.90
3948;DHT22;1988;48.694;9.562;2022-07-06T06:45:19;22.00;99.90
3948;DHT22;1988;48.694;9.562;2022-07-06T06:47:44;22.00;99.90
3948;DHT22;1988;48.694;9.562;2022-07-06T06:50:10;22.00;99.90
3948;DHT22;1988;48.694;9.562;2022-07-06T06:52:35;22.00;99.90
3948;DHT22;1988;48.694;9.562;2022-07-06T06:55:01;22.00;99.90
3948;DHT22;1988;48.694;9.562;2022-07-06T06:57:26;22.00;99.90
3948;DHT22;1988;48.694;9.562;2022-07-06T06:59:54;22.10;99.90
3948;DHT22;1988;48.694;9.562;2022-07-06T07:02:19;22.10;99.90
3948;DHT22;1988;48.694;9.562;2022-07-06T07:04:45;22.10;99.90
3948;DHT22;1988;48.694;9.562;2022-07-06T07:07:10;22.10;99.90
3948;DHT22;1988;48.694;9.562;2022-07-06T07:09:36;22.10;99.90
3948;DHT22;1988;48.694;9.562;2022-07-06T07:12:01;22.10;99.90
3948;DHT22;1988;48.694;9.562;2022-07-06T07:14:27;22.20;99.90
3948;DHT22;1988;48.694;9.562;2022-07-06T07:16:53;22.20;99.90
3948;DHT22;1988;48.694;9.562;2022-07-06T07:19:18;22.20;99.90
3948;DHT22;1988;48.694;9.562;2022-07-06T07:21:44;22.20;99.90
3948;DHT22;1988;48.694;9.562;2022-07-06T07:24:09;22.20;99.90
3948;DHT22;1988;48.694;9.562;2022-07-06T07:26:35;22.20;99.90
3948;DHT22;1988;48.694;9.562;2022-07-06T07:29:01;22.20;99.90
3948;DHT22;1988;48.694;9.562;2022-07-06T07:31:26;22.30;99.90
3948;DHT22;1988;48.694;9.562;2022-07-06T07:33:52;22.30;99.90
3948;DHT22;1988;48.694;9.562;2022-07-06T07:36:17;22.30;99.90
3948;DHT22;1988;48.694;9.562;2022-07-06T07:38:43;22.30;99.90
3948;DHT22;1988;48.694;9.562;2022-07-06T07:41:08;22.30;99.90
3948;DHT22;1988;48.694;9.562;2022-07-06T07:43:36;22.30;99.90
3948;DHT22;1988;48.694;9.562;2022-07-06T07:46:02;22.30;99.90
3948;DHT22;1988;48.694;9.562;2022-07-06T07:48:27;22.40;99.90
3948;DHT22;1988;48.694;9.562;2022-07-06T07:50:53;22.40;99.90
3948;DHT22;1988;48.694;9.562;2022-07-06T07:53:18;22.40;99.90
3948;DHT22;1988;48.694;9.562;2022-07-06T07:55:44;22.40;99.90
3948;DHT22;1988;48.694;9.562;2022-07-06T07:58:09;22.40;99.90
3948;DHT22;1988;48.694;9.562;2022-07-06T08:00:35;22.40;99.90
3948;DHT22;1988;48.694;9.562;2022-07-06T08:03:00;22.40;99.90
3948;DHT22;1988;48.694;9.562;2022-07-06T08:05:26;22.50;99.90
3948;DHT22;1988;48.694;9.562;2022-07-06T08:07:51;22.50;99.90
3948;DHT22;1988;48.694;9.562;2022-07-06T08:10:17;22.50;99.90
3948;DHT22;1988;48.694;9.562;2022-07-06T08:12:43;22.50;99.90
3948;DHT22;1988;48.694;9.562;2022-07-06T08:15:08;22.50;99.90
3948;DHT22;1988;48.694;9.562;2022-07-06T08:17:34;22.50;99.90
3948;DHT22;1988;48.694;9.562;2022-07-06T08:19:59;22.60;99.90
3948;DHT22;1988;48.694;9.562;2022-07-06T08:22:25;22.60;99.90
3948;DHT22;1988;48.694;9.562;2022-07-06T08:24:50;22.60;99.90
3948;DHT22;1988;48.694;9.562;2022-07-06T08:27:16;22.60;99.90
3948;DHT22;1988;48.694;9.562;2022-07-06T08:29:42;22.60;99.90
3948;DHT22;1988;48.694;9.562;2022-07-06T08:32:07;22.60;99.90
3948;DHT22;1988;48.694;9.562;2022-07-06T08:34:33;22.60;99.90
3948;DHT22;1988;48.694;9.562;2022-07-06T08:36:58;22.70;99.90
3948;DHT22;1988;48.694;9.562;2022-07-06T08:39:24;22.70;99.90
3948;DHT22;1988;48.694;9.562;2022-07-06T08:44:25;22.70;99.90
3948;DHT22;1988;48.694;9.562;2022-07-06T08:46:51;22.80;99.90
3948;DHT22;1988;48.694;9.562;2022-07-06T08:49:17;22.80;99.90
3948;DHT22;1988;48.694;9.562;2022-07-06T08:51:44;22.80;99.90
3948;DHT22;1988;48.694;9.562;2022-07-06T08:54:10;22.80;99.90
3948;DHT22;1988;48.694;9.562;2022-07-06T08:56:36;22.80;99.90
3948;DHT22;1988;48.694;9.562;2022-07-06T08:59:01;22.90;99.90
3948;DHT22;1988;48.694;9.562;2022-07-06T09:01:27;22.90;99.90
3948;DHT22;1988;48.694;9.562;2022-07-06T09:03:54;22.90;99.90
3948;DHT22;1988;48.694;9.562;2022-07-06T09:06:21;22.90;99.90
3948;DHT22;1988;48.694;9.562;2022-07-06T09:08:48;22.90;99.90
3948;DHT22;1988;48.694;9.562;2022-07-06T09:11:14;22.90;99.90
3948;DHT22;1988;48.694;9.562;2022-07-06T09:13:39;22.90;99.90
3948;DHT22;1988;48.694;9.562;2022-07-06T09:16:09;22.90;99.90
3948;DHT22;1988;48.694;9.562;2022-07-06T09:18:38;23.00;99.90
3948;DHT22;1988;48.694;9.562;2022-07-06T09:21:04;23.00;99.90
3948;DHT22;1988;48.694;9.562;2022-07-06T09:23:30;23.00;99.90
3948;DHT22;1988;48.694;9.562;2022-07-06T09:25:55;23.00;99.90
3948;DHT22;1988;48.694;9.562;2022-07-06T09:28:21;23.00;99.90
3948;DHT22;1988;48.694;9.562;2022-07-06T09:30:46;23.10;99.90
3948;DHT22;1988;48.694;9.562;2022-07-06T09:33:12;23.10;99.90
3948;DHT22;1988;48.694;9.562;2022-07-06T09:35:42;23.10;99.90
3948;DHT22;1988;48.694;9.562;2022-07-06T09:40:36;23.10;99.90
3948;DHT22;1988;48.694;9.562;2022-07-06T09:45:34;23.10;99.90
3948;DHT22;1988;48.694;9.562;2022-07-06T09:48:05;23.20;99.90
3948;DHT22;1988;48.694;9.562;2022-07-06T09:50:37;23.20;99.90
3948;DHT22;1988;48.694;9.562;2022-07-06T09:53:03;23.20;99.90
3948;DHT22;1988;48.694;9.562;2022-07-06T09:55:29;23.30;99.90
3948;DHT22;1988;48.694;9.562;2022-07-06T09:57:55;23.30;99.90
3948;DHT22;1988;48.694;9.562;2022-07-06T10:00:20;23.30;99.90
3948;DHT22;1988;48.694;9.562;2022-07-06T10:02:46;23.30;99.90
3948;DHT22;1988;48.694;9.562;2022-07-06T10:05:13;23.30;99.90
3948;DHT22;1988;48.694;9.562;2022-07-06T10:07:39;23.30;99.90
3948;DHT22;1988;48.694;9.562;2022-07-06T10:10:05;23.40;99.90
3948;DHT22;1988;48.694;9.562;2022-07-06T10:12:31;23.40;99.90
3948;DHT22;1988;48.694;9.562;2022-07-06T10:14:57;23.40;99.90
3948;DHT22;1988;48.694;9.562;2022-07-06T10:17:22;23.40;99.90
3948;DHT22;1988;48.694;9.562;2022-07-06T10:19:48;23.40;99.90
3948;DHT22;1988;48.694;9.562;2022-07-06T10:22:15;23.50;99.90
3948;DHT22;1988;48.694;9.562;2022-07-06T10:24:43;23.50;99.90
3948;DHT22;1988;48.694;9.562;2022-07-06T10:27:09;23.50;99.90
3948;DHT22;1988;48.694;9.562;2022-07-06T10:29:36;23.50;99.90
3948;DHT22;1988;48.694;9.562;2022-07-06T10:32:02;23.50;99.90
3948;DHT22;1988;48.694;9.562;2022-07-06T10:34:28;23.60;99.90
3948;DHT22;1988;48.694;9.562;2022-07-06T10:36:53;23.60;99.90
3948;DHT22;1988;48.694;9.562;2022-07-06T10:39:33;23.60;99.90
3948;DHT22;1988;48.694;9.562;2022-07-06T10:45:01;23.60;99.90
3948;DHT22;1988;48.694;9.562;2022-07-06T10:47:27;23.70;99.90
3948;DHT22;1988;48.694;9.562;2022-07-06T10:49:53;23.70;99.90
3948;DHT22;1988;48.694;9.562;2022-07-06T10:52:28;23.70;99.90
3948;DHT22;1988;48.694;9.562;2022-07-06T10:55:24;23.70;99.90
3948;DHT22;1988;48.694;9.562;2022-07-06T10:57:53;23.80;99.90
3948;DHT22;1988;48.694;9.562;2022-07-06T11:00:18;23.80;99.90
3948;DHT22;1988;48.694;9.562;2022-07-06T11:02:44;23.80;99.90
3948;DHT22;1988;48.694;9.562;2022-07-06T11:05:39;23.90;99.90
3948;DHT22;1988;48.694;9.562;2022-07-06T11:08:00;23.90;99.90
3948;DHT22;1988;48.694;9.562;2022-07-06T11:10:26;23.90;99.90
3948;DHT22;1988;48.694;9.562;2022-07-06T11:12:58;24.00;99.90
3948;DHT22;1988;48.694;9.562;2022-07-06T11:18:19;24.00;99.90
3948;DHT22;1988;48.694;9.562;2022-07-06T11:21:12;24.10;99.90
3948;DHT22;1988;48.694;9.562;2022-07-06T11:23:30;24.10;99.90
3948;DHT22;1988;48.694;9.562;2022-07-06T11:25:56;24.10;99.90
3948;DHT22;1988;48.694;9.562;2022-07-06T11:28:21;24.10;99.90
3948;DHT22;1988;48.694;9.562;2022-07-06T11:30:47;24.10;99.90
3948;DHT22;1988;48.694;9.562;2022-07-06T11:33:27;24.20;99.90
3948;DHT22;1988;48.694;9.562;2022-07-06T11:35:52;24.20;99.90
3948;DHT22;1988;48.694;9.562;2022-07-06T11:38:35;24.30;99.90
3948;DHT22;1988;48.694;9.562;2022-07-06T11:41:00;24.30;99.90
3948;DHT22;1988;48.694;9.562;2022-07-06T11:43:26;24.30;99.90
3948;DHT22;1988;48.694;9.562;2022-07-06T11:45:51;24.30;99.90
3948;DHT22;1988;48.694;9.562;2022-07-06T11:48:17;24.30;99.90
3948;DHT22;1988;48.694;9.562;2022-07-06T11:50:42;24.30;99.90
3948;DHT22;1988;48.694;9.562;2022-07-06T11:53:08;24.40;99.90
3948;DHT22;1988;48.694;9.562;2022-07-06T11:55:33;24.40;99.90
3948;DHT22;1988;48.694;9.562;2022-07-06T11:57:59;24.40;99.90
3948;DHT22;1988;48.694;9.562;2022-07-06T12:00:26;24.40;99.90
3948;DHT22;1988;48.694;9.562;2022-07-06T12:02:59;24.50;99.90
3948;DHT22;1988;48.694;9.562;2022-07-06T12:05:31;24.50;99.90
3948;DHT22;1988;48.694;9.562;2022-07-06T12:08:06;24.50;99.90
3948;DHT22;1988;48.694;9.562;2022-07-06T12:10:34;24.50;99.90
3948;DHT22;1988;48.694;9.562;2022-07-06T12:13:03;24.60;99.90
3948;DHT22;1988;48.694;9.562;2022-07-06T12:15:29;24.60;99.90
3948;DHT22;1988;48.694;9.562;2022-07-06T12:17:55;24.60;99.90
3948;DHT22;1988;48.694;9.562;2022-07-06T12:20:20;24.60;99.90
3948;DHT22;1988;48.694;9.562;2022-07-06T12:22:46;24.70;99.90
3948;DHT22;1988;48.694;9.562;2022-07-06T12:25:11;24.70;99.90
3948;DHT22;1988;48.694;9.562;2022-07-06T12:27:37;24.80;99.90
3948;DHT22;1988;48.694;9.562;2022-07-06T12:30:09;24.80;99.90
3948;DHT22;1988;48.694;9.562;2022-07-06T12:32:35;24.80;99.90
3948;DHT22;1988;48.694;9.562;2022-07-06T12:35:08;24.80;99.90
3948;DHT22;1988;48.694;9.562;2022-07-06T12:37:34;24.80;99.90
3948;DHT22;1988;48.694;9.562;2022-07-06T12:39:59;24.90;99.90
3948;DHT22;1988;48.694;9.562;2022-07-06T12:42:26;24.90;99.90
3948;DHT22;1988;48.694;9.562;2022-07-06T12:44:51;24.90;99.90
3948;DHT22;1988;48.694;9.562;2022-07-06T12:47:18;24.90;99.90
3948;DHT22;1988;48.694;9.562;2022-07-06T12:49:43;24.90;99.90
3948;DHT22;1988;48.694;9.562;2022-07-06T12:52:10;25.00;99.90
3948;DHT22;1988;48.694;9.562;2022-07-06T12:59:34;25.00;99.90
3948;DHT22;1988;48.694;9.562;2022-07-06T13:02:00;25.10;99.90
3948;DHT22;1988;48.694;9.562;2022-07-06T13:04:29;25.10;99.90
3948;DHT22;1988;48.694;9.562;2022-07-06T13:06:55;25.10;99.90
3948;DHT22;1988;48.694;9.562;2022-07-06T13:09:21;25.10;99.90
3948;DHT22;1988;48.694;9.562;2022-07-06T13:11:47;25.20;99.90
3948;DHT22;1988;48.694;9.562;2022-07-06T13:14:14;25.20;99.90
3948;DHT22;1988;48.694;9.562;2022-07-06T13:16:40;25.20;99.90
3948;DHT22;1988;48.694;9.562;2022-07-06T13:19:05;25.20;99.90
3948;DHT22;1988;48.694;9.562;2022-07-06T13:21:31;25.20;99.70
3948;DHT22;1988;48.694;9.562;2022-07-06T13:23:56;25.30;99.70
3948;DHT22;1988;48.694;9.562;2022-07-06T13:26:22;25.30;99.50
3948;DHT22;1988;48.694;9.562;2022-07-06T13:28:47;25.30;99.50
3948;DHT22;1988;48.694;9.562;2022-07-06T13:31:13;25.30;99.40
3948;DHT22;1988;48.694;9.562;2022-07-06T13:33:38;25.30;99.30
3948;DHT22;1988;48.694;9.562;2022-07-06T13:36:04;25.40;99.30
3948;DHT22;1988;48.694;9.562;2022-07-06T13:38:30;25.40;99.00
3948;DHT22;1988;48.694;9.562;2022-07-06T13:40:55;25.40;98.90
3948;DHT22;1988;48.694;9.562;2022-07-06T13:43:21;25.40;98.70
3948;DHT22;1988;48.694;9.562;2022-07-06T13:45:47;25.40;98.70
3948;DHT22;1988;48.694;9.562;2022-07-06T13:48:12;25.50;98.60
3948;DHT22;1988;48.694;9.562;2022-07-06T13:50:38;25.50;98.50
3948;DHT22;1988;48.694;9.562;2022-07-06T13:53:04;25.50;98.40
3948;DHT22;1988;48.694;9.562;2022-07-06T13:55:30;25.60;98.30
3948;DHT22;1988;48.694;9.562;2022-07-06T13:57:56;25.60;98.30
3948;DHT22;1988;48.694;9.562;2022-07-06T14:00:21;25.60;98.20
3948;DHT22;1988;48.694;9.562;2022-07-06T14:02:47;25.60;98.20
3948;DHT22;1988;48.694;9.562;2022-07-06T14:05:13;25.60;98.20
3948;DHT22;1988;48.694;9.562;2022-07-06T14:07:38;25.70;98.10
3948;DHT22;1988;48.694;9.562;2022-07-06T14:10:04;25.70;97.90
3948;DHT22;1988;48.694;9.562;2022-07-06T14:12:29;25.70;97.80
3948;DHT22;1988;48.694;9.562;2022-07-06T14:14:55;25.70;97.80
3948;DHT22;1988;48.694;9.562;2022-07-06T14:17:20;25.70;97.50
3948;DHT22;1988;48.694;9.562;2022-07-06T14:19:47;25.70;97.50
3948;DHT22;1988;48.694;9.562;2022-07-06T14:22:13;25.70;97.50
3948;DHT22;1988;48.694;9.562;2022-07-06T14:24:38;25.80;97.50
3948;DHT22;1988;48.694;9.562;2022-07-06T14:27:04;25.70;97.40
3948;DHT22;1988;48.694;9.562;2022-07-06T14:29:29;25.80;97.40
3948;DHT22;1988;48.694;9.562;2022-07-06T14:31:55;25.80;97.30
3948;DHT22;1988;48.694;9.562;2022-07-06T14:34:20;25.80;97.30
3948;DHT22;1988;48.694;9.562;2022-07-06T14:36:46;25.90;97.00
3948;DHT22;1988;48.694;9.562;2022-07-06T14:39:11;25.80;96.90
3948;DHT22;1988;48.694;9.562;2022-07-06T14:41:38;25.80;96.90
3948;DHT22;1988;48.694;9.562;2022-07-06T14:44:03;25.90;96.90
3948;DHT22;1988;48.694;9.562;2022-07-06T14:46:30;25.90;96.90
3948;DHT22;1988;48.694;9.562;2022-07-06T14:48:55;25.90;96.90
3948;DHT22;1988;48.694;9.562;2022-07-06T14:51:21;25.90;96.60
3948;DHT22;1988;48.694;9.562;2022-07-06T14:53:46;25.90;96.70
3948;DHT22;1988;48.694;9.562;2022-07-06T14:56:12;25.90;96.70
3948;DHT22;1988;48.694;9.562;2022-07-06T14:58:37;25.90;97.10
3948;DHT22;1988;48.694;9.562;2022-07-06T15:01:03;26.00;96.70
3948;DHT22;1988;48.694;9.562;2022-07-06T15:03:28;26.00;96.60
3948;DHT22;1988;48.694;9.562;2022-07-06T15:05:54;26.00;96.60
3948;DHT22;1988;48.694;9.562;2022-07-06T15:08:19;26.00;96.50
3948;DHT22;1988;48.694;9.562;2022-07-06T15:10:45;26.00;96.50
3948;DHT22;1988;48.694;9.562;2022-07-06T15:13:11;26.00;96.50
3948;DHT22;1988;48.694;9.562;2022-07-06T15:15:36;26.00;96.50
3948;DHT22;1988;48.694;9.562;2022-07-06T15:18:02;26.00;96.50
3948;DHT22;1988;48.694;9.562;2022-07-06T15:20:28;26.00;96.50
3948;DHT22;1988;48.694;9.562;2022-07-06T15:22:53;26.00;96.60
3948;DHT22;1988;48.694;9.562;2022-07-06T15:25:19;26.00;96.60
3948;DHT22;1988;48.694;9.562;2022-07-06T15:27:45;26.00;96.70
3948;DHT22;1988;48.694;9.562;2022-07-06T15:30:10;26.00;96.70
3948;DHT22;1988;48.694;9.562;2022-07-06T15:32:36;26.10;96.80
3948;DHT22;1988;48.694;9.562;2022-07-06T15:35:02;26.10;96.90
3948;DHT22;1988;48.694;9.562;2022-07-06T15:37:33;26.00;96.90
3948;DHT22;1988;48.694;9.562;2022-07-06T15:40:00;26.10;97.00
3948;DHT22;1988;48.694;9.562;2022-07-06T15:42:25;26.10;97.10
3948;DHT22;1988;48.694;9.562;2022-07-06T15:44:51;26.10;97.10
3948;DHT22;1988;48.694;9.562;2022-07-06T15:47:18;26.20;97.20
3948;DHT22;1988;48.694;9.562;2022-07-06T15:49:44;26.20;97.20
3948;DHT22;1988;48.694;9.562;2022-07-06T15:52:10;26.10;97.20
3948;DHT22;1988;48.694;9.562;2022-07-06T15:54:36;26.20;97.30
3948;DHT22;1988;48.694;9.562;2022-07-06T15:57:01;26.20;97.30
3948;DHT22;1988;48.694;9.562;2022-07-06T15:59:27;26.20;97.40
3948;DHT22;1988;48.694;9.562;2022-07-06T16:01:52;26.20;97.40
3948;DHT22;1988;48.694;9.562;2022-07-06T16:04:18;26.20;97.40
3948;DHT22;1988;48.694;9.562;2022-07-06T16:06:44;26.20;97.40
3948;DHT22;1988;48.694;9.562;2022-07-06T16:09:09;26.20;97.40
3948;DHT22;1988;48.694;9.562;2022-07-06T16:11:35;26.20;97.50
3948;DHT22;1988;48.694;9.562;2022-07-06T16:14:00;26.20;97.50
3948;DHT22;1988;48.694;9.562;2022-07-06T16:16:26;26.20;97.60